首页
METAR-TAF:

METAR-TAF

机场 :

孔戈尼亚斯/圣保罗机场

聖保羅, 圣保罗州, 巴西

纬度: 23-37S, 经度: 046-39W, 海拔: 803米

当前天气观测

该预报发布于27分钟前的05:00 UTC
风速4节,风向南转南东
温度 13°C
湿度 88%
气压 1029 hPa
能见度10公里或以上
少量云层高于700英尺

METAR: SBSP 040500Z AUTO 15004KT 9999 FEW007 13/11 Q1029

时间: 02:27 (05:27 UTC)

预报

该预报发布于8小时和3分钟前的21:24 UTC
预报有效从04日的 00点(UTC)到 04日的 12点(UTC)
风速5节,风向东南
能見度: 7000
多云层高于1100英尺
成为
从 04日的 01点(UTC)到 04日的 03点(UTC)
成为
从 04日的 05点(UTC)到 04日的 07点(UTC)
风速3节,风向
几率 30%
从 04日的 09点(UTC)到 04日的 11点(UTC)
风速5节,风向东北
能見度: 4000
多云层高于600英尺
轻雾

TAF: SBSP 032124Z 0400/0412 13005KT 7000 BKN011 TX16/0400Z TN12/0409Z BECMG 0401/0403 NSC BECMG 0405/0407 08003KT PROB30 0409/0411 05005KT 4000 BR BKN006 RMK PGF

超过4000个机场的气象观测和天气预报(METAR&TAF报告)。

可查询的气象台以黄色和红色小点在地图上表示。

将鼠标移到小点上方,可查看气象台名称。

然后点击查看天气观测和预报。

如需切换地图:点击带黑十字的绿色按钮放大地图;点击带横线的绿色按钮缩小地图;或者点击绿色箭头查看邻近地区的地图。


METAR-TAF: